sensor_id;sensor_type;location;lat;lon;timestamp;pressure;altitude;pressure_sealevel;temperature;humidity
47985;BME280;33753;52.912;-7.342;2022-12-08T00:01:56;100719.84;;;-0.07;100.00
47985;BME280;33753;52.912;-7.342;2022-12-08T00:04:25;100721.56;;;-0.06;100.00
47985;BME280;33753;52.912;-7.342;2022-12-08T00:06:53;100717.13;;;-0.06;100.00
47985;BME280;33753;52.912;-7.342;2022-12-08T00:09:41;100712.66;;;-0.05;100.00
47985;BME280;33753;52.912;-7.342;2022-12-08T00:12:09;100701.06;;;-0.04;100.00
47985;BME280;33753;52.912;-7.342;2022-12-08T00:14:39;100703.53;;;-0.01;100.00
47985;BME280;33753;52.912;-7.342;2022-12-08T00:17:08;100695.66;;;-0.03;100.00
47985;BME280;33753;52.912;-7.342;2022-12-08T00:19:37;100685.88;;;-0.02;100.00
47985;BME280;33753;52.912;-7.342;2022-12-08T00:22:06;100684.16;;;-0.03;100.00
47985;BME280;33753;52.912;-7.342;2022-12-08T00:24:36;100677.31;;;-0.07;100.00
47985;BME280;33753;52.912;-7.342;2022-12-08T00:27:07;100670.31;;;-0.08;100.00
47985;BME280;33753;52.912;-7.342;2022-12-08T00:29:35;100674.09;;;-0.12;100.00
47985;BME280;33753;52.912;-7.342;2022-12-08T00:32:04;100669.72;;;-0.13;100.00
47985;BME280;33753;52.912;-7.342;2022-12-08T00:34:32;100666.34;;;-0.15;100.00
47985;BME280;33753;52.912;-7.342;2022-12-08T00:37:01;100661.97;;;-0.16;100.00
47985;BME280;33753;52.912;-7.342;2022-12-08T00:39:29;100654.94;;;-0.18;100.00
47985;BME280;33753;52.912;-7.342;2022-12-08T00:41:57;100652.25;;;-0.18;100.00
47985;BME280;33753;52.912;-7.342;2022-12-08T00:44:44;100654.19;;;-0.20;100.00
47985;BME280;33753;52.912;-7.342;2022-12-08T00:47:12;100650.00;;;-0.24;100.00
47985;BME280;33753;52.912;-7.342;2022-12-08T00:49:44;100649.44;;;-0.29;100.00
47985;BME280;33753;52.912;-7.342;2022-12-08T00:52:12;100652.50;;;-0.35;100.00
47985;BME280;33753;52.912;-7.342;2022-12-08T00:54:40;100656.69;;;-0.45;100.00
47985;BME280;33753;52.912;-7.342;2022-12-08T00:57:08;100650.03;;;-0.53;100.00
47985;BME280;33753;52.912;-7.342;2022-12-08T00:59:37;100647.00;;;-0.61;100.00
47985;BME280;33753;52.912;-7.342;2022-12-08T01:02:07;100635.16;;;-0.70;100.00
47985;BME280;33753;52.912;-7.342;2022-12-08T01:04:35;100637.31;;;-0.76;100.00
47985;BME280;33753;52.912;-7.342;2022-12-08T01:07:03;100635.97;;;-0.83;100.00
47985;BME280;33753;52.912;-7.342;2022-12-08T01:09:31;100630.47;;;-0.95;100.00
47985;BME280;33753;52.912;-7.342;2022-12-08T01:11:59;100622.91;;;-1.01;100.00
47985;BME280;33753;52.912;-7.342;2022-12-08T01:14:28;100625.25;;;-1.11;100.00
47985;BME280;33753;52.912;-7.342;2022-12-08T01:16:56;100618.78;;;-1.21;100.00
47985;BME280;33753;52.912;-7.342;2022-12-08T01:19:26;100616.47;;;-1.27;100.00
47985;BME280;33753;52.912;-7.342;2022-12-08T01:21:56;100615.91;;;-1.32;100.00
47985;BME280;33753;52.912;-7.342;2022-12-08T01:24:24;100609.38;;;-1.41;100.00
47985;BME280;33753;52.912;-7.342;2022-12-08T01:26:52;100607.13;;;-1.49;100.00
47985;BME280;33753;52.912;-7.342;2022-12-08T01:29:20;100604.03;;;-1.55;100.00
47985;BME280;33753;52.912;-7.342;2022-12-08T01:31:49;100609.56;;;-1.60;100.00
47985;BME280;33753;52.912;-7.342;2022-12-08T01:34:17;100605.66;;;-1.69;100.00
47985;BME280;33753;52.912;-7.342;2022-12-08T01:36:47;100599.00;;;-1.76;100.00
47985;BME280;33753;52.912;-7.342;2022-12-08T01:39:16;100593.13;;;-1.81;100.00
47985;BME280;33753;52.912;-7.342;2022-12-08T01:41:45;100576.53;;;-1.85;100.00
47985;BME280;33753;52.912;-7.342;2022-12-08T01:47:02;100582.81;;;-2.02;100.00
47985;BME280;33753;52.912;-7.342;2022-12-08T01:49:31;100577.88;;;-2.08;100.00
47985;BME280;33753;52.912;-7.342;2022-12-08T01:52:04;100572.56;;;-2.08;100.00
47985;BME280;33753;52.912;-7.342;2022-12-08T01:54:37;100572.56;;;-2.08;100.00
47985;BME280;33753;52.912;-7.342;2022-12-08T01:57:07;100566.56;;;-2.12;100.00
47985;BME280;33753;52.912;-7.342;2022-12-08T01:59:37;100571.03;;;-2.12;100.00
47985;BME280;33753;52.912;-7.342;2022-12-08T02:02:06;100568.28;;;-2.11;100.00
47985;BME280;33753;52.912;-7.342;2022-12-08T02:04:35;100558.38;;;-2.07;100.00
47985;BME280;33753;52.912;-7.342;2022-12-08T02:07:05;100562.56;;;-2.03;100.00
47985;BME280;33753;52.912;-7.342;2022-12-08T02:09:35;100563.22;;;-1.99;100.00
47985;BME280;33753;52.912;-7.342;2022-12-08T02:12:03;100563.97;;;-1.97;100.00
47985;BME280;33753;52.912;-7.342;2022-12-08T02:14:32;100561.25;;;-1.96;100.00
47985;BME280;33753;52.912;-7.342;2022-12-08T02:17:02;100554.06;;;-1.94;100.00
47985;BME280;33753;52.912;-7.342;2022-12-08T02:19:41;100557.31;;;-1.88;100.00
47985;BME280;33753;52.912;-7.342;2022-12-08T02:22:18;100552.66;;;-1.85;100.00
47985;BME280;33753;52.912;-7.342;2022-12-08T02:24:49;100547.28;;;-1.83;100.00
47985;BME280;33753;52.912;-7.342;2022-12-08T02:27:25;100545.41;;;-1.81;100.00
47985;BME280;33753;52.912;-7.342;2022-12-08T02:30:06;100540.84;;;-1.79;100.00
47985;BME280;33753;52.912;-7.342;2022-12-08T02:32:53;100545.03;;;-1.75;100.00
47985;BME280;33753;52.912;-7.342;2022-12-08T02:35:30;100544.00;;;-1.72;100.00
47985;BME280;33753;52.912;-7.342;2022-12-08T02:38:04;100549.22;;;-1.71;100.00
47985;BME280;33753;52.912;-7.342;2022-12-08T02:40:36;100544.66;;;-1.69;100.00
47985;BME280;33753;52.912;-7.342;2022-12-08T02:43:07;100548.19;;;-1.68;100.00
47985;BME280;33753;52.912;-7.342;2022-12-08T02:45:38;100542.69;;;-1.65;100.00
47985;BME280;33753;52.912;-7.342;2022-12-08T02:48:08;100536.53;;;-1.66;100.00
47985;BME280;33753;52.912;-7.342;2022-12-08T02:50:38;100538.94;;;-1.61;100.00
47985;BME280;33753;52.912;-7.342;2022-12-08T02:53:06;100538.66;;;-1.57;100.00
47985;BME280;33753;52.912;-7.342;2022-12-08T02:55:36;100536.66;;;-1.53;100.00
47985;BME280;33753;52.912;-7.342;2022-12-08T02:58:18;100525.88;;;-1.50;100.00
47985;BME280;33753;52.912;-7.342;2022-12-08T03:00:55;100530.91;;;-1.45;100.00
47985;BME280;33753;52.912;-7.342;2022-12-08T03:03:27;100522.75;;;-1.42;100.00
47985;BME280;33753;52.912;-7.342;2022-12-08T03:06:03;100529.56;;;-1.38;100.00
47985;BME280;33753;52.912;-7.342;2022-12-08T03:08:34;100531.09;;;-1.34;100.00
47985;BME280;33753;52.912;-7.342;2022-12-08T03:11:07;100532.63;;;-1.30;100.00
47985;BME280;33753;52.912;-7.342;2022-12-08T03:13:37;100537.75;;;-1.27;100.00
47985;BME280;33753;52.912;-7.342;2022-12-08T03:16:08;100526.94;;;-1.24;100.00
47985;BME280;33753;52.912;-7.342;2022-12-08T03:18:38;100528.44;;;-1.19;100.00
47985;BME280;33753;52.912;-7.342;2022-12-08T03:21:11;100522.13;;;-1.17;100.00
47985;BME280;33753;52.912;-7.342;2022-12-08T03:23:41;100518.41;;;-1.14;100.00
47985;BME280;33753;52.912;-7.342;2022-12-08T03:26:12;100510.25;;;-1.11;100.00
47985;BME280;33753;52.912;-7.342;2022-12-08T03:28:43;100512.91;;;-1.11;100.00
47985;BME280;33753;52.912;-7.342;2022-12-08T03:31:11;100510.06;;;-1.08;100.00
47985;BME280;33753;52.912;-7.342;2022-12-08T03:33:42;100511.78;;;-1.07;100.00
47985;BME280;33753;52.912;-7.342;2022-12-08T03:36:13;100512.63;;;-1.07;100.00
47985;BME280;33753;52.912;-7.342;2022-12-08T03:38:43;100509.78;;;-1.03;100.00
47985;BME280;33753;52.912;-7.342;2022-12-08T03:41:11;100504.56;;;-1.05;100.00
47985;BME280;33753;52.912;-7.342;2022-12-08T03:43:46;100502.84;;;-1.06;100.00
47985;BME280;33753;52.912;-7.342;2022-12-08T03:46:15;100492.03;;;-1.03;100.00
47985;BME280;33753;52.912;-7.342;2022-12-08T03:48:43;100498.22;;;-1.02;100.00
47985;BME280;33753;52.912;-7.342;2022-12-08T03:51:13;100500.00;;;-1.03;100.00
47985;BME280;33753;52.912;-7.342;2022-12-08T03:53:42;100493.75;;;-1.02;100.00
47985;BME280;33753;52.912;-7.342;2022-12-08T03:56:13;100484.84;;;-1.01;100.00
47985;BME280;33753;52.912;-7.342;2022-12-08T03:58:42;100483.31;;;-1.05;100.00
47985;BME280;33753;52.912;-7.342;2022-12-08T04:01:11;100478.00;;;-1.05;100.00
47985;BME280;33753;52.912;-7.342;2022-12-08T04:03:39;100476.50;;;-1.09;100.00
47985;BME280;33753;52.912;-7.342;2022-12-08T04:06:07;100472.03;;;-1.09;100.00
47985;BME280;33753;52.912;-7.342;2022-12-08T04:08:37;100466.19;;;-1.14;100.00
47985;BME280;33753;52.912;-7.342;2022-12-08T04:11:05;100467.78;;;-1.11;100.00
47985;BME280;33753;52.912;-7.342;2022-12-08T04:13:33;100461.81;;;-1.15;100.00
47985;BME280;33753;52.912;-7.342;2022-12-08T04:16:02;100462.84;;;-1.17;100.00
47985;BME280;33753;52.912;-7.342;2022-12-08T04:18:31;100467.50;;;-1.21;100.00
47985;BME280;33753;52.912;-7.342;2022-12-08T04:20:59;100465.78;;;-1.22;100.00
47985;BME280;33753;52.912;-7.342;2022-12-08T04:23:27;100460.00;;;-1.29;100.00
47985;BME280;33753;52.912;-7.342;2022-12-08T04:25:57;100450.56;;;-1.33;100.00
47985;BME280;33753;52.912;-7.342;2022-12-08T04:28:25;100447.72;;;-1.30;100.00
47985;BME280;33753;52.912;-7.342;2022-12-08T04:30:58;100442.31;;;-1.28;100.00
47985;BME280;33753;52.912;-7.342;2022-12-08T04:33:26;100451.88;;;-1.26;100.00
47985;BME280;33753;52.912;-7.342;2022-12-08T04:35:54;100445.59;;;-1.25;100.00
47985;BME280;33753;52.912;-7.342;2022-12-08T04:38:23;100447.50;;;-1.27;100.00
47985;BME280;33753;52.912;-7.342;2022-12-08T04:40:51;100440.59;;;-1.29;100.00
47985;BME280;33753;52.912;-7.342;2022-12-08T04:43:20;100443.44;;;-1.32;100.00
47985;BME280;33753;52.912;-7.342;2022-12-08T04:45:48;100442.41;;;-1.30;100.00
47985;BME280;33753;52.912;-7.342;2022-12-08T04:48:16;100438.13;;;-1.32;100.00
47985;BME280;33753;52.912;-7.342;2022-12-08T04:50:45;100442.97;;;-1.39;100.00
47985;BME280;33753;52.912;-7.342;2022-12-08T04:53:13;100431.72;;;-1.43;100.00
47985;BME280;33753;52.912;-7.342;2022-12-08T04:55:42;100429.16;;;-1.44;100.00
47985;BME280;33753;52.912;-7.342;2022-12-08T04:58:11;100431.03;;;-1.46;100.00
47985;BME280;33753;52.912;-7.342;2022-12-08T05:00:41;100422.97;;;-1.45;100.00
47985;BME280;33753;52.912;-7.342;2022-12-08T05:03:10;100417.84;;;-1.48;100.00
47985;BME280;33753;52.912;-7.342;2022-12-08T05:05:38;100417.84;;;-1.48;100.00
47985;BME280;33753;52.912;-7.342;2022-12-08T05:08:07;100415.88;;;-1.44;100.00
47985;BME280;33753;52.912;-7.342;2022-12-08T05:10:35;100409.81;;;-1.46;100.00
47985;BME280;33753;52.912;-7.342;2022-12-08T05:13:03;100410.00;;;-1.49;100.00
47985;BME280;33753;52.912;-7.342;2022-12-08T05:15:32;100409.06;;;-1.48;100.00
47985;BME280;33753;52.912;-7.342;2022-12-08T05:18:01;100406.22;;;-1.45;100.00
47985;BME280;33753;52.912;-7.342;2022-12-08T05:20:31;100397.31;;;-1.44;100.00
47985;BME280;33753;52.912;-7.342;2022-12-08T05:23:00;100400.72;;;-1.42;100.00
47985;BME280;33753;52.912;-7.342;2022-12-08T05:25:28;100390.09;;;-1.42;100.00
47985;BME280;33753;52.912;-7.342;2022-12-08T05:27:56;100388.38;;;-1.43;100.00
47985;BME280;33753;52.912;-7.342;2022-12-08T05:30:45;100385.00;;;-1.45;100.00
47985;BME280;33753;52.912;-7.342;2022-12-08T05:33:14;100384.06;;;-1.44;100.00
47985;BME280;33753;52.912;-7.342;2022-12-08T05:35:42;100384.06;;;-1.44;100.00
47985;BME280;33753;52.912;-7.342;2022-12-08T05:38:11;100381.41;;;-1.44;100.00
47985;BME280;33753;52.912;-7.342;2022-12-08T05:40:39;100381.41;;;-1.44;100.00
47985;BME280;33753;52.912;-7.342;2022-12-08T05:43:09;100373.69;;;-1.49;100.00
47985;BME280;33753;52.912;-7.342;2022-12-08T05:45:37;100374.56;;;-1.48;100.00
47985;BME280;33753;52.912;-7.342;2022-12-08T05:48:05;100368.59;;;-1.52;100.00
47985;BME280;33753;52.912;-7.342;2022-12-08T05:50:35;100357.16;;;-1.52;100.00
47985;BME280;33753;52.912;-7.342;2022-12-08T05:53:03;100349.28;;;-1.54;100.00
47985;BME280;33753;52.912;-7.342;2022-12-08T05:55:31;100353.72;;;-1.54;100.00
47985;BME280;33753;52.912;-7.342;2022-12-08T05:58:00;100359.81;;;-1.52;100.00
47985;BME280;33753;52.912;-7.342;2022-12-08T06:00:33;100353.91;;;-1.58;100.00
47985;BME280;33753;52.912;-7.342;2022-12-08T06:03:02;100348.81;;;-1.61;100.00
47985;BME280;33753;52.912;-7.342;2022-12-08T06:05:31;100350.81;;;-1.64;100.00
47985;BME280;33753;52.912;-7.342;2022-12-08T06:08:00;100353.53;;;-1.66;100.00
47985;BME280;33753;52.912;-7.342;2022-12-08T06:10:29;100349.09;;;-1.65;100.00
47985;BME280;33753;52.912;-7.342;2022-12-08T06:12:57;100347.28;;;-1.65;100.00
47985;BME280;33753;52.912;-7.342;2022-12-08T06:15:25;100344.84;;;-1.68;100.00
47985;BME280;33753;52.912;-7.342;2022-12-08T06:17:54;100347.28;;;-1.65;100.00
47985;BME280;33753;52.912;-7.342;2022-12-08T06:20:22;100347.28;;;-1.65;100.00
47985;BME280;33753;52.912;-7.342;2022-12-08T06:22:50;100350.72;;;-1.63;100.00
47985;BME280;33753;52.912;-7.342;2022-12-08T06:25:20;100349.66;;;-1.60;100.00
47985;BME280;33753;52.912;-7.342;2022-12-08T06:27:49;100348.63;;;-1.58;100.00
47985;BME280;33753;52.912;-7.342;2022-12-08T06:30:17;100354.69;;;-1.55;100.00
47985;BME280;33753;52.912;-7.342;2022-12-08T06:32:45;100340.56;;;-1.56;100.00
47985;BME280;33753;52.912;-7.342;2022-12-08T06:35:13;100325.50;;;-1.55;100.00
47985;BME280;33753;52.912;-7.342;2022-12-08T06:37:41;100327.19;;;-1.54;100.00
47985;BME280;33753;52.912;-7.342;2022-12-08T06:40:10;100329.84;;;-1.54;100.00
47985;BME280;33753;52.912;-7.342;2022-12-08T06:42:39;100328.06;;;-1.54;100.00
47985;BME280;33753;52.912;-7.342;2022-12-08T06:45:12;100324.44;;;-1.53;100.00
47985;BME280;33753;52.912;-7.342;2022-12-08T06:47:41;100327.19;;;-1.54;100.00
47985;BME280;33753;52.912;-7.342;2022-12-08T06:50:09;100327.97;;;-1.52;100.00
47985;BME280;33753;52.912;-7.342;2022-12-08T06:52:38;100326.16;;;-1.52;100.00
47985;BME280;33753;52.912;-7.342;2022-12-08T06:55:26;100325.31;;;-1.52;100.00
47985;BME280;33753;52.912;-7.342;2022-12-08T06:58:16;100337.63;;;-1.51;100.00
47985;BME280;33753;52.912;-7.342;2022-12-08T07:00:45;100333.06;;;-1.49;100.00
47985;BME280;33753;52.912;-7.342;2022-12-08T07:03:13;100332.34;;;-1.51;100.00
47985;BME280;33753;52.912;-7.342;2022-12-08T07:05:41;100331.34;;;-1.50;100.00
47985;BME280;33753;52.912;-7.342;2022-12-08T07:08:09;100329.75;;;-1.53;100.00
47985;BME280;33753;52.912;-7.342;2022-12-08T07:10:38;100325.41;;;-1.54;100.00
47985;BME280;33753;52.912;-7.342;2022-12-08T07:13:06;100323.59;;;-1.53;100.00
47985;BME280;33753;52.912;-7.342;2022-12-08T07:15:36;100328.81;;;-1.52;100.00
47985;BME280;33753;52.912;-7.342;2022-12-08T07:18:04;100328.72;;;-1.50;100.00
47985;BME280;33753;52.912;-7.342;2022-12-08T07:20:32;100313.56;;;-1.48;100.00
47985;BME280;33753;52.912;-7.342;2022-12-08T07:23:00;100319.63;;;-1.46;100.00
47985;BME280;33753;52.912;-7.342;2022-12-08T07:25:29;100296.59;;;-1.46;100.00
47985;BME280;33753;52.912;-7.342;2022-12-08T07:27:57;100306.16;;;-1.43;100.00
47985;BME280;33753;52.912;-7.342;2022-12-08T07:30:26;100300.75;;;-1.42;100.00
47985;BME280;33753;52.912;-7.342;2022-12-08T07:32:56;100296.31;;;-1.41;100.00
47985;BME280;33753;52.912;-7.342;2022-12-08T07:35:24;100298.75;;;-1.38;100.00
47985;BME280;33753;52.912;-7.342;2022-12-08T07:38:16;100310.09;;;-1.36;100.00
47985;BME280;33753;52.912;-7.342;2022-12-08T07:40:44;100301.19;;;-1.35;100.00
47985;BME280;33753;52.912;-7.342;2022-12-08T07:43:12;100301.97;;;-1.33;100.00
47985;BME280;33753;52.912;-7.342;2022-12-08T07:45:40;100306.31;;;-1.32;100.00
47985;BME280;33753;52.912;-7.342;2022-12-08T07:48:11;100299.97;;;-1.29;100.00
47985;BME280;33753;52.912;-7.342;2022-12-08T07:50:39;100306.09;;;-1.29;100.00
47985;BME280;33753;52.912;-7.342;2022-12-08T07:53:19;100299.66;;;-1.25;100.00
47985;BME280;33753;52.912;-7.342;2022-12-08T07:55:47;100305.72;;;-1.23;100.00
47985;BME280;33753;52.912;-7.342;2022-12-08T07:58:16;100303.81;;;-1.20;100.00
47985;BME280;33753;52.912;-7.342;2022-12-08T08:00:44;100297.47;;;-1.18;100.00
47985;BME280;33753;52.912;-7.342;2022-12-08T08:03:14;100296.63;;;-1.18;100.00
47985;BME280;33753;52.912;-7.342;2022-12-08T08:06:01;100286.84;;;-1.18;100.00
47985;BME280;33753;52.912;-7.342;2022-12-08T08:08:29;100292.88;;;-1.16;100.00
47985;BME280;33753;52.912;-7.342;2022-12-08T08:10:57;100281.34;;;-1.15;100.00
47985;BME280;33753;52.912;-7.342;2022-12-08T08:13:25;100283.88;;;-1.13;100.00
47985;BME280;33753;52.912;-7.342;2022-12-08T08:15:54;100277.63;;;-1.12;100.00
47985;BME280;33753;52.912;-7.342;2022-12-08T08:18:31;100281.03;;;-1.10;100.00
47985;BME280;33753;52.912;-7.342;2022-12-08T08:21:00;100278.38;;;-1.10;100.00
47985;BME280;33753;52.912;-7.342;2022-12-08T08:23:48;100271.28;;;-1.10;100.00
47985;BME280;33753;52.912;-7.342;2022-12-08T08:26:17;100276.69;;;-1.11;100.00
47985;BME280;33753;52.912;-7.342;2022-12-08T08:28:45;100276.91;;;-1.14;100.00
47985;BME280;33753;52.912;-7.342;2022-12-08T08:31:13;100273.47;;;-1.16;100.00
47985;BME280;33753;52.912;-7.342;2022-12-08T08:33:44;100279.72;;;-1.17;100.00
47985;BME280;33753;52.912;-7.342;2022-12-08T08:36:16;100280.59;;;-1.17;100.00
47985;BME280;33753;52.912;-7.342;2022-12-08T08:38:44;100275.19;;;-1.15;100.00
47985;BME280;33753;52.912;-7.342;2022-12-08T08:41:13;100278.56;;;-1.13;100.00
47985;BME280;33753;52.912;-7.342;2022-12-08T08:43:41;100276.69;;;-1.11;100.00
47985;BME280;33753;52.912;-7.342;2022-12-08T08:46:10;100279.13;;;-1.08;100.00
47985;BME280;33753;52.912;-7.342;2022-12-08T08:48:39;100274.56;;;-1.06;100.00
47985;BME280;33753;52.912;-7.342;2022-12-08T08:51:09;100278.09;;;-1.06;100.00
47985;BME280;33753;52.912;-7.342;2022-12-08T08:53:38;100282.25;;;-1.01;100.00
47985;BME280;33753;52.912;-7.342;2022-12-08T08:56:07;100280.31;;;-0.99;100.00
47985;BME280;33753;52.912;-7.342;2022-12-08T08:58:36;100284.59;;;-0.97;100.00
47985;BME280;33753;52.912;-7.342;2022-12-08T09:01:04;100281.38;;;-1.02;100.00
47985;BME280;33753;52.912;-7.342;2022-12-08T09:03:32;100279.28;;;-0.97;100.00
47985;BME280;33753;52.912;-7.342;2022-12-08T09:06:00;100277.16;;;-0.92;100.00
47985;BME280;33753;52.912;-7.342;2022-12-08T09:08:33;100283.22;;;-0.90;100.00
47985;BME280;33753;52.912;-7.342;2022-12-08T09:11:01;100276.31;;;-0.92;100.00
47985;BME280;33753;52.912;-7.342;2022-12-08T09:13:30;100274.22;;;-0.87;100.00
47985;BME280;33753;52.912;-7.342;2022-12-08T09:15:59;100269.75;;;-0.87;100.00
47985;BME280;33753;52.912;-7.342;2022-12-08T09:18:30;100265.16;;;-0.84;100.00
47985;BME280;33753;52.912;-7.342;2022-12-08T09:21:02;100275.88;;;-0.86;100.00
47985;BME280;33753;52.912;-7.342;2022-12-08T09:23:33;100278.25;;;-0.81;100.00
47985;BME280;33753;52.912;-7.342;2022-12-08T09:26:02;100281.66;;;-0.79;100.00
47985;BME280;33753;52.912;-7.342;2022-12-08T09:28:32;100275.91;;;-0.73;100.00
47985;BME280;33753;52.912;-7.342;2022-12-08T09:31:00;100281.00;;;-0.70;100.00
47985;BME280;33753;52.912;-7.342;2022-12-08T09:33:32;100277.41;;;-0.69;100.00
47985;BME280;33753;52.912;-7.342;2022-12-08T09:36:00;100271.88;;;-0.66;100.00
47985;BME280;33753;52.912;-7.342;2022-12-08T09:38:29;100270.63;;;-0.60;100.00
47985;BME280;33753;52.912;-7.342;2022-12-08T09:40:59;100277.44;;;-0.56;100.00
47985;BME280;33753;52.912;-7.342;2022-12-08T09:43:38;100276.16;;;-0.50;100.00
47985;BME280;33753;52.912;-7.342;2022-12-08T09:46:12;100273.28;;;-0.47;100.00
47985;BME280;33753;52.912;-7.342;2022-12-08T09:48:42;100275.75;;;-0.44;100.00
47985;BME280;33753;52.912;-7.342;2022-12-08T09:51:15;100274.38;;;-0.37;100.00
47985;BME280;33753;52.912;-7.342;2022-12-08T09:53:44;100280.97;;;-0.30;100.00
47985;BME280;33753;52.912;-7.342;2022-12-08T09:56:20;100275.34;;;-0.25;100.00
47985;BME280;33753;52.912;-7.342;2022-12-08T09:58:49;100275.00;;;-0.21;100.00
47985;BME280;33753;52.912;-7.342;2022-12-08T10:01:19;100280.09;;;-0.18;100.00
47985;BME280;33753;52.912;-7.342;2022-12-08T10:03:50;100277.34;;;-0.16;100.00
47985;BME280;33753;52.912;-7.342;2022-12-08T10:06:21;100269.13;;;-0.13;100.00
47985;BME280;33753;52.912;-7.342;2022-12-08T10:08:55;100266.19;;;-0.08;100.00
47985;BME280;33753;52.912;-7.342;2022-12-08T10:11:28;100272.13;;;-0.05;100.00
47985;BME280;33753;52.912;-7.342;2022-12-08T10:14:02;100269.16;;;0.00;100.00
47985;BME280;33753;52.912;-7.342;2022-12-08T10:16:37;100262.63;;;0.04;100.00
47985;BME280;33753;52.912;-7.342;2022-12-08T10:19:10;100256.38;;;0.05;100.00
47985;BME280;33753;52.912;-7.342;2022-12-08T10:21:41;100249.88;;;0.09;100.00
47985;BME280;33753;52.912;-7.342;2022-12-08T10:24:11;100261.03;;;0.14;100.00
47985;BME280;33753;52.912;-7.342;2022-12-08T10:26:46;100256.22;;;0.20;100.00
47985;BME280;33753;52.912;-7.342;2022-12-08T10:29:14;100255.88;;;0.24;100.00
47985;BME280;33753;52.912;-7.342;2022-12-08T10:31:42;100251.94;;;0.30;100.00
47985;BME280;33753;52.912;-7.342;2022-12-08T10:34:15;100258.03;;;0.32;100.00
47985;BME280;33753;52.912;-7.342;2022-12-08T10:36:45;100261.41;;;0.34;100.00
47985;BME280;33753;52.912;-7.342;2022-12-08T10:39:25;100262.88;;;0.38;100.00
47985;BME280;33753;52.912;-7.342;2022-12-08T10:42:00;100257.09;;;0.44;100.00
47985;BME280;33753;52.912;-7.342;2022-12-08T10:44:29;100256.69;;;0.50;100.00
47985;BME280;33753;52.912;-7.342;2022-12-08T10:46:57;100260.59;;;0.58;100.00
47985;BME280;33753;52.912;-7.342;2022-12-08T10:49:28;100259.19;;;0.65;100.00
47985;BME280;33753;52.912;-7.342;2022-12-08T10:51:58;100261.38;;;0.71;100.00
47985;BME280;33753;52.912;-7.342;2022-12-08T10:54:27;100260.19;;;0.75;100.00
47985;BME280;33753;52.912;-7.342;2022-12-08T10:56:55;100254.41;;;0.81;100.00
47985;BME280;33753;52.912;-7.342;2022-12-08T10:59:25;100258.78;;;0.82;100.00
47985;BME280;33753;52.912;-7.342;2022-12-08T11:01:55;100255.44;;;0.92;100.00
47985;BME280;33753;52.912;-7.342;2022-12-08T11:04:25;100248.59;;;1.00;100.00
47985;BME280;33753;52.912;-7.342;2022-12-08T11:06:59;100252.13;;;1.12;100.00
47985;BME280;33753;52.912;-7.342;2022-12-08T11:09:34;100253.91;;;1.36;100.00
47985;BME280;33753;52.912;-7.342;2022-12-08T11:12:06;100255.88;;;1.57;100.00
47985;BME280;33753;52.912;-7.342;2022-12-08T11:14:44;100248.13;;;1.65;100.00
47985;BME280;33753;52.912;-7.342;2022-12-08T11:17:14;100251.06;;;1.73;100.00
47985;BME280;33753;52.912;-7.342;2022-12-08T11:19:44;100249.81;;;1.77;100.00
47985;BME280;33753;52.912;-7.342;2022-12-08T11:22:19;100249.63;;;1.92;100.00
47985;BME280;33753;52.912;-7.342;2022-12-08T11:24:55;100248.28;;;1.97;100.00
47985;BME280;33753;52.912;-7.342;2022-12-08T11:27:25;100238.44;;;2.09;100.00
47985;BME280;33753;52.912;-7.342;2022-12-08T11:29:55;100233.09;;;2.20;100.00
47985;BME280;33753;52.912;-7.342;2022-12-08T11:32:23;100227.97;;;2.29;100.00
47985;BME280;33753;52.912;-7.342;2022-12-08T11:34:54;100224.31;;;2.41;100.00
47985;BME280;33753;52.912;-7.342;2022-12-08T11:37:24;100216.06;;;2.44;100.00
47985;BME280;33753;52.912;-7.342;2022-12-08T11:40:02;100213.88;;;2.49;100.00
47985;BME280;33753;52.912;-7.342;2022-12-08T11:42:33;100214.72;;;2.50;100.00
47985;BME280;33753;52.912;-7.342;2022-12-08T11:45:06;100207.59;;;2.39;100.00
47985;BME280;33753;52.912;-7.342;2022-12-08T11:47:41;100210.84;;;2.42;100.00
47985;BME280;33753;52.912;-7.342;2022-12-08T11:50:15;100201.25;;;2.40;100.00
47985;BME280;33753;52.912;-7.342;2022-12-08T11:52:46;100201.78;;;2.34;100.00
47985;BME280;33753;52.912;-7.342;2022-12-08T11:55:18;100201.03;;;2.43;100.00
47985;BME280;33753;52.912;-7.342;2022-12-08T11:57:50;100197.88;;;2.38;100.00
47985;BME280;33753;52.912;-7.342;2022-12-08T12:00:20;100195.69;;;2.43;100.00
47985;BME280;33753;52.912;-7.342;2022-12-08T12:02:49;100193.22;;;2.51;100.00
47985;BME280;33753;52.912;-7.342;2022-12-08T12:05:23;100185.56;;;2.58;100.00
47985;BME280;33753;52.912;-7.342;2022-12-08T12:08:17;100177.03;;;2.64;100.00
47985;BME280;33753;52.912;-7.342;2022-12-08T12:10:53;100167.06;;;2.78;100.00
47985;BME280;33753;52.912;-7.342;2022-12-08T12:13:31;100163.47;;;2.88;100.00
47985;BME280;33753;52.912;-7.342;2022-12-08T12:19:03;100169.16;;;3.16;100.00
47985;BME280;33753;52.912;-7.342;2022-12-08T12:21:32;100166.00;;;3.11;100.00
47985;BME280;33753;52.912;-7.342;2022-12-08T12:24:02;100159.16;;;3.18;100.00
47985;BME280;33753;52.912;-7.342;2022-12-08T12:26:33;100154.75;;;3.07;100.00
47985;BME280;33753;52.912;-7.342;2022-12-08T12:29:03;100146.53;;;3.20;100.00
47985;BME280;33753;52.912;-7.342;2022-12-08T12:31:34;100146.41;;;3.01;100.00
47985;BME280;33753;52.912;-7.342;2022-12-08T12:34:06;100148.44;;;2.87;100.00
47985;BME280;33753;52.912;-7.342;2022-12-08T12:36:45;100143.38;;;2.73;100.00
47985;BME280;33753;52.912;-7.342;2022-12-08T12:39:15;100142.47;;;2.63;100.00
47985;BME280;33753;52.912;-7.342;2022-12-08T12:41:46;100144.69;;;2.57;100.00
47985;BME280;33753;52.912;-7.342;2022-12-08T12:44:35;100147.66;;;2.43;100.00
47985;BME280;33753;52.912;-7.342;2022-12-08T12:47:05;100139.16;;;2.38;100.00
47985;BME280;33753;52.912;-7.342;2022-12-08T12:52:39;100129.13;;;2.30;100.00
47985;BME280;33753;52.912;-7.342;2022-12-08T12:58:02;100134.50;;;2.19;100.00
47985;BME280;33753;52.912;-7.342;2022-12-08T13:00:30;100134.41;;;2.09;100.00
47985;BME280;33753;52.912;-7.342;2022-12-08T13:02:59;100124.22;;;2.03;100.00